Time;durP1;ratioP1;P1;durP2;ratioP2;P2;SDS_P1;SDS_P2;PMS_P1;PMS_P2;Temp;Humidity;BMP_temperature;BMP_pressure;BME280_temperature;BME280_humidity;BME280_pressure;Samples;Min_cycle;Max_cycle;Signal;HPM_P1;HPM_P2
2021/09/18 00:00:40;;;;;;;3.50;1.63;;;14.60;97.70;;;;;;4973101;28;20224;-70
2021/09/18 00:03:05;;;;;;;2.15;1.17;;;14.60;97.70;;;;;;4972957;28;20030;-70
2021/09/18 00:05:31;;;;;;;4.05;1.40;;;14.50;97.70;;;;;;4973503;28;20031;-70
2021/09/18 00:07:57;;;;;;;3.78;1.60;;;14.60;97.70;;;;;;4972615;28;20493;-70
2021/09/18 00:10:23;;;;;;;5.07;1.95;;;14.50;97.80;;;;;;4972815;28;20118;-70
2021/09/18 00:12:48;;;;;;;5.32;1.77;;;14.60;97.80;;;;;;4972995;28;20031;-70
2021/09/18 00:15:14;;;;;;;6.05;1.88;;;14.50;97.90;;;;;;4972933;28;20570;-70
2021/09/18 00:17:40;;;;;;;3.08;1.17;;;14.50;97.90;;;;;;4973357;28;20027;-70
2021/09/18 00:20:06;;;;;;;3.03;1.35;;;14.50;98.00;;;;;;4971961;28;20042;-70
2021/09/18 00:22:32;;;;;;;4.85;1.50;;;14.50;97.90;;;;;;4972836;28;20038;-68
2021/09/18 00:24:58;;;;;;;2.92;1.40;;;14.50;97.90;;;;;;4972712;28;20473;-70
2021/09/18 00:27:23;;;;;;;6.13;1.52;;;14.50;97.90;;;;;;4972637;28;20437;-70
2021/09/18 00:29:49;;;;;;;5.28;1.83;;;14.40;97.80;;;;;;4973118;28;20055;-68
2021/09/18 00:32:15;;;;;;;3.40;1.60;;;14.40;97.80;;;;;;4971534;28;20089;-70
2021/09/18 00:34:41;;;;;;;4.93;1.77;;;14.40;97.80;;;;;;4972643;28;20082;-70
2021/09/18 00:37:06;;;;;;;3.95;1.52;;;14.30;97.90;;;;;;4972742;28;20046;-70
2021/09/18 00:39:31;;;;;;;2.88;1.52;;;14.20;97.90;;;;;;4972345;28;20042;-70
2021/09/18 00:41:57;;;;;;;3.58;1.58;;;14.20;97.90;;;;;;4972996;28;20338;-70
2021/09/18 00:44:27;;;;;;;4.85;1.77;;;14.20;97.90;;;;;;4972548;28;20027;-68
2021/09/18 00:46:53;;;;;;;5.80;2.10;;;14.20;97.90;;;;;;4972402;28;20037;-70
2021/09/18 00:49:19;;;;;;;6.07;1.17;;;14.30;97.90;;;;;;4972759;28;20360;-70
2021/09/18 00:51:45;;;;;;;6.25;1.75;;;14.10;98.00;;;;;;4972618;28;20043;-70
2021/09/18 00:54:13;;;;;;;5.93;1.33;;;14.10;98.10;;;;;;4972487;28;20062;-70
2021/09/18 00:56:40;;;;;;;1.73;1.00;;;14.10;98.20;;;;;;4973074;28;20030;-70
2021/09/18 00:59:07;;;;;;;1.73;1.33;;;14.10;98.10;;;;;;4972648;28;20121;-70
2021/09/18 01:01:32;;;;;;;3.50;1.67;;;14.10;98.10;;;;;;4972239;28;20065;-70
2021/09/18 01:04:00;;;;;;;4.68;1.58;;;14.00;98.20;;;;;;4972626;28;20039;-71
2021/09/18 01:06:28;;;;;;;2.97;1.40;;;14.00;98.10;;;;;;4972324;28;20031;-70
2021/09/18 01:08:55;;;;;;;2.53;1.30;;;14.00;98.20;;;;;;4973095;28;20122;-70
2021/09/18 01:11:20;;;;;;;5.17;1.30;;;14.10;98.20;;;;;;4972535;28;20528;-71
2021/09/18 01:13:46;;;;;;;5.38;1.67;;;14.00;98.30;;;;;;4972278;28;20031;-70
2021/09/18 01:16:11;;;;;;;6.60;1.40;;;14.00;98.40;;;;;;4972548;28;20412;-71
2021/09/18 01:18:37;;;;;;;7.10;1.63;;;14.00;98.40;;;;;;4971399;28;20031;-70
2021/09/18 01:21:03;;;;;;;5.03;1.80;;;13.90;98.50;;;;;;4972536;28;20150;-70
2021/09/18 01:23:28;;;;;;;2.75;1.30;;;14.00;98.40;;;;;;4972743;28;20133;-70
2021/09/18 01:25:55;;;;;;;8.27;1.88;;;14.10;98.30;;;;;;4972324;28;20046;-70
2021/09/18 01:28:23;;;;;;;2.95;1.10;;;14.00;98.40;;;;;;4972143;28;20023;-70
2021/09/18 01:30:48;;;;;;;5.97;1.50;;;14.00;98.50;;;;;;4972047;28;20031;-70
2021/09/18 01:33:14;;;;;;;2.83;1.40;;;14.00;98.70;;;;;;4971822;28;20046;-71
2021/09/18 01:35:40;;;;;;;2.25;1.55;;;14.10;98.60;;;;;;4979150;28;20033;-70
2021/09/18 01:38:06;;;;;;;10.40;1.60;;;14.30;98.60;;;;;;4991400;28;20112;-70
2021/09/18 01:40:36;;;;;;;2.45;1.52;;;14.20;98.50;;;;;;4991494;28;20050;-70
2021/09/18 01:43:02;;;;;;;3.63;1.33;;;14.30;98.40;;;;;;4991467;28;20038;-70
2021/09/18 01:45:31;;;;;;;3.97;1.38;;;14.20;98.40;;;;;;4991418;28;20124;-70
2021/09/18 01:48:00;;;;;;;2.33;1.50;;;14.20;98.40;;;;;;4991732;28;20057;-71
2021/09/18 01:50:45;;;;;;;1.75;1.40;;;14.10;98.40;;;;;;4992099;28;20097;-69
2021/09/18 01:53:11;;;;;;;2.35;1.50;;;14.10;98.40;;;;;;4994897;28;20416;-70
2021/09/18 01:55:37;;;;;;;2.42;1.20;;;14.10;98.50;;;;;;4995028;28;20026;-70
2021/09/18 01:58:04;;;;;;;2.92;1.40;;;14.10;98.50;;;;;;4994960;28;20389;-70
2021/09/18 02:00:30;;;;;;;2.38;1.48;;;14.00;98.50;;;;;;4995010;28;20039;-70
2021/09/18 02:02:56;;;;;;;1.35;1.15;;;14.00;98.50;;;;;;4995009;28;20040;-69
2021/09/18 02:05:26;;;;;;;3.83;1.80;;;14.00;98.60;;;;;;4994743;28;20035;-70
2021/09/18 02:07:52;;;;;;;5.28;1.92;;;14.00;98.80;;;;;;4994615;28;20097;-70
2021/09/18 02:10:21;;;;;;;8.57;2.05;;;13.90;99.00;;;;;;4994591;28;20030;-70
2021/09/18 02:12:46;;;;;;;;;;;13.90;99.40;;;;;;4995019;28;20041;-70
2021/09/18 02:15:14;;;;;;;5.22;2.00;;;13.90;99.30;;;;;;4993686;28;19906;-70
2021/09/18 02:17:40;;;;;;;5.37;1.93;;;14.00;99.20;;;;;;4995088;28;20023;-70
2021/09/18 02:20:08;;;;;;;4.70;1.73;;;14.00;99.20;;;;;;4994520;28;20045;-70
2021/09/18 02:22:34;;;;;;;7.28;1.83;;;14.00;99.20;;;;;;4994436;28;20427;-70
2021/09/18 02:24:59;;;;;;;4.15;1.95;;;14.00;99.20;;;;;;4994408;28;20030;-70
2021/09/18 02:27:25;;;;;;;4.63;1.92;;;14.00;99.30;;;;;;4994308;28;20027;-70
2021/09/18 02:29:51;;;;;;;7.18;2.40;;;14.00;99.10;;;;;;4995024;28;20018;-69
2021/09/18 02:32:16;;;;;;;2.53;1.65;;;13.90;99.30;;;;;;4994309;28;20137;-70
2021/09/18 02:34:42;;;;;;;3.78;2.00;;;13.90;99.40;;;;;;4994398;28;20037;-69
2021/09/18 02:37:07;;;;;;;5.43;2.00;;;14.00;99.40;;;;;;4994101;28;20408;-70
2021/09/18 02:39:33;;;;;;;6.18;2.20;;;14.00;99.30;;;;;;4994346;28;20026;-70
2021/09/18 02:41:59;;;;;;;5.38;2.17;;;14.00;99.50;;;;;;4994025;28;20026;-69
2021/09/18 02:44:25;;;;;;;10.40;2.33;;;13.90;99.40;;;;;;4994644;28;20292;-70
2021/09/18 02:46:50;;;;;;;6.55;2.20;;;13.90;99.30;;;;;;4993916;28;20353;-70
2021/09/18 02:49:16;;;;;;;8.48;2.20;;;13.90;99.50;;;;;;4994099;28;20130;-69
2021/09/18 02:51:42;;;;;;;5.40;2.50;;;13.80;99.50;;;;;;4994119;28;20042;-69
2021/09/18 02:54:08;;;;;;;6.28;2.63;;;13.80;99.60;;;;;;4994148;28;20395;-69
2021/09/18 02:56:34;;;;;;;5.10;2.53;;;13.80;99.60;;;;;;4994323;28;20045;-69
2021/09/18 02:58:59;;;;;;;5.05;2.25;;;13.80;99.60;;;;;;4994009;28;20038;-69
2021/09/18 03:01:25;;;;;;;4.47;2.30;;;13.80;99.50;;;;;;4993425;28;20030;-70
2021/09/18 03:03:50;;;;;;;2.42;2.00;;;13.90;99.50;;;;;;4993704;28;20042;-70
2021/09/18 03:06:16;;;;;;;2.92;2.38;;;13.80;99.50;;;;;;4993716;28;20097;-69
2021/09/18 03:08:42;;;;;;;4.43;2.58;;;13.80;99.60;;;;;;4994111;28;20123;-69
2021/09/18 03:11:07;;;;;;;5.65;2.50;;;13.80;99.60;;;;;;4993545;28;20109;-69
2021/09/18 03:13:35;;;;;;;5.47;2.53;;;13.70;99.90;;;;;;4993662;28;20038;-70
2021/09/18 03:16:04;;;;;;;6.30;2.95;;;13.70;99.90;;;;;;4993831;28;20034;-70
2021/09/18 03:18:30;;;;;;;3.92;2.50;;;13.60;99.90;;;;;;4993528;28;20026;-70
2021/09/18 03:20:55;;;;;;;8.73;2.95;;;13.60;99.90;;;;;;4994214;28;20113;-70
2021/09/18 03:23:21;;;;;;;6.95;3.28;;;13.70;99.90;;;;;;4993304;28;20118;-70
2021/09/18 03:25:47;;;;;;;10.77;3.85;;;13.70;99.90;;;;;;4993366;28;20508;-70
2021/09/18 03:28:12;;;;;;;4.90;2.85;;;13.80;99.90;;;;;;4993130;28;20038;-69
2021/09/18 03:30:38;;;;;;;4.00;2.65;;;13.80;99.80;;;;;;4993204;28;20027;-70
2021/09/18 03:33:03;;;;;;;5.57;2.65;;;13.60;99.90;;;;;;4992153;28;20030;-70
2021/09/18 03:35:29;;;;;;;5.97;2.97;;;13.60;99.90;;;;;;4993691;28;20031;-70
2021/09/18 03:37:55;;;;;;;4.55;2.88;;;13.70;99.90;;;;;;4993192;28;20521;-70
2021/09/18 03:40:21;;;;;;;7.45;3.05;;;13.80;99.90;;;;;;4993090;28;20092;-70
2021/09/18 03:42:47;;;;;;;3.88;2.63;;;13.80;99.80;;;;;;4992896;28;20104;-70
2021/09/18 03:45:12;;;;;;;5.45;2.67;;;13.80;99.80;;;;;;4992978;28;20026;-70
2021/09/18 03:47:38;;;;;;;11.18;3.20;;;13.80;99.70;;;;;;4993260;28;20045;-70
2021/09/18 03:50:05;;;;;;;7.72;2.83;;;13.80;99.70;;;;;;4992903;28;20101;-70
2021/09/18 03:52:31;;;;;;;7.13;3.08;;;13.80;99.70;;;;;;4992975;28;20392;-70
2021/09/18 03:54:56;;;;;;;9.60;3.80;;;13.90;99.70;;;;;;4992662;28;20034;-70
2021/09/18 03:57:23;;;;;;;4.22;3.05;;;13.90;99.60;;;;;;4992682;28;20042;-70
2021/09/18 03:59:48;;;;;;;8.20;3.00;;;13.90;99.70;;;;;;4993282;28;20030;-70
2021/09/18 04:02:14;;;;;;;9.98;3.28;;;14.00;99.70;;;;;;4992423;28;20076;-70
2021/09/18 04:04:40;;;;;;;8.45;2.83;;;14.00;99.60;;;;;;4992409;28;20019;-70
2021/09/18 04:07:06;;;;;;;4.43;3.30;;;14.00;99.60;;;;;;4992526;28;20039;-70
2021/09/18 04:09:31;;;;;;;8.85;4.15;;;13.90;99.60;;;;;;4992395;28;20034;-70
2021/09/18 04:11:57;;;;;;;7.18;3.45;;;14.00;99.70;;;;;;4992755;28;20041;-70
2021/09/18 04:14:22;;;;;;;6.57;3.55;;;14.00;99.70;;;;;;4992035;28;20031;-70
2021/09/18 04:16:48;;;;;;;5.43;3.22;;;13.80;99.90;;;;;;4992551;28;20034;-69
2021/09/18 04:19:14;;;;;;;6.85;3.58;;;14.00;99.80;;;;;;4992660;28;20046;-70
2021/09/18 04:21:39;;;;;;;5.13;3.40;;;14.10;99.60;;;;;;4992124;28;20372;-69
2021/09/18 04:24:05;;;;;;;5.35;3.40;;;14.20;99.50;;;;;;4992399;28;20044;-70
2021/09/18 04:26:32;;;;;;;9.20;4.03;;;14.10;99.50;;;;;;4991869;28;20029;-70
2021/09/18 04:28:58;;;;;;;7.47;4.30;;;14.10;99.60;;;;;;4992317;28;20117;-70
2021/09/18 04:31:24;;;;;;;8.25;3.65;;;14.10;99.60;;;;;;4992192;28;20145;-70
2021/09/18 04:33:49;;;;;;;4.80;3.58;;;14.10;99.70;;;;;;4992419;28;20045;-69
2021/09/18 04:36:15;;;;;;;8.82;4.47;;;14.20;99.70;;;;;;4992115;28;20034;-69
2021/09/18 04:38:41;;;;;;;6.95;3.83;;;14.20;99.60;;;;;;4992594;28;20015;-69
2021/09/18 04:41:07;;;;;;;6.20;4.00;;;14.30;99.60;;;;;;4992002;28;20472;-69
2021/09/18 04:43:33;;;;;;;9.77;3.80;;;14.30;99.50;;;;;;4992100;28;20069;-69
2021/09/18 04:45:59;;;;;;;5.53;4.00;;;14.30;99.50;;;;;;4992075;28;20054;-69
2021/09/18 04:48:24;;;;;;;7.20;3.92;;;14.20;99.50;;;;;;4991964;28;20468;-69
2021/09/18 04:50:50;;;;;;;5.30;4.00;;;14.30;99.50;;;;;;4992302;28;20035;-68
2021/09/18 04:53:16;;;;;;;9.30;4.05;;;14.30;99.40;;;;;;4992153;28;20101;-69
2021/09/18 04:55:42;;;;;;;6.20;4.05;;;14.30;99.40;;;;;;4991885;28;20393;-69
2021/09/18 04:58:07;;;;;;;5.50;3.67;;;14.30;99.30;;;;;;4991803;28;20045;-70
2021/09/18 05:00:33;;;;;;;10.85;4.05;;;14.20;99.40;;;;;;4991796;28;20042;-70
2021/09/18 05:02:59;;;;;;;5.00;3.50;;;14.30;99.50;;;;;;4991582;28;20085;-70
2021/09/18 05:05:24;;;;;;;10.73;3.72;;;14.20;99.40;;;;;;4992129;28;20440;-70
2021/09/18 05:07:50;;;;;;;8.45;4.15;;;14.20;99.40;;;;;;4991570;28;20047;-70
2021/09/18 05:10:15;;;;;;;11.38;4.18;;;14.30;99.40;;;;;;4991551;28;20052;-71
2021/09/18 05:12:41;;;;;;;5.53;4.22;;;14.30;99.30;;;;;;4991771;28;20428;-71
2021/09/18 05:15:08;;;;;;;8.77;3.42;;;14.30;99.30;;;;;;4991536;28;20357;-70
2021/09/18 05:17:34;;;;;;;5.65;4.13;;;14.30;99.30;;;;;;4992152;28;20019;-70
2021/09/18 05:19:59;;;;;;;6.22;3.63;;;14.30;99.30;;;;;;4991618;28;20041;-70
2021/09/18 05:22:25;;;;;;;6.90;4.40;;;14.30;99.30;;;;;;4991423;28;20053;-70
2021/09/18 05:24:51;;;;;;;11.32;4.32;;;14.30;99.50;;;;;;4993046;28;20580;-70
2021/09/18 05:27:17;;;;;;;5.60;4.30;;;14.30;99.30;;;;;;4994386;28;20440;-70
2021/09/18 05:29:44;;;;;;;5.13;3.80;;;14.40;99.30;;;;;;4995980;28;20151;-70
2021/09/18 05:32:11;;;;;;;8.07;3.70;;;14.30;99.40;;;;;;4995531;28;20038;-70
2021/09/18 05:34:36;;;;;;;7.88;3.80;;;14.30;99.40;;;;;;4995291;28;20034;-70
2021/09/18 05:37:03;;;;;;;8.23;4.47;;;14.40;99.30;;;;;;4995466;28;20038;-70
2021/09/18 05:39:28;;;;;;;8.57;4.30;;;14.40;99.40;;;;;;4995451;28;20042;-69
2021/09/18 05:41:54;;;;;;;10.25;4.18;;;14.40;99.40;;;;;;4995984;28;20031;-70
2021/09/18 05:44:19;;;;;;;8.00;3.95;;;14.50;99.40;;;;;;4995433;28;20353;-71
2021/09/18 05:46:45;;;;;;;6.15;3.67;;;14.50;99.30;;;;;;4995149;28;20483;-71
2021/09/18 05:49:10;;;;;;;7.38;3.97;;;14.50;99.20;;;;;;4995105;28;20027;-70
2021/09/18 05:51:36;;;;;;;5.95;3.95;;;14.50;99.10;;;;;;4994790;28;20049;-70
2021/09/18 05:54:02;;;;;;;6.82;4.60;;;14.60;99.10;;;;;;4995033;28;20034;-70
2021/09/18 05:56:27;;;;;;;9.13;4.30;;;14.40;99.00;;;;;;4995041;28;20436;-71
2021/09/18 05:58:53;;;;;;;7.38;4.10;;;14.40;99.30;;;;;;4994892;28;20036;-71
2021/09/18 06:01:19;;;;;;;9.35;4.30;;;14.40;99.30;;;;;;4994688;28;20120;-72
2021/09/18 06:03:44;;;;;;;10.73;4.50;;;14.50;99.40;;;;;;4995098;28;20073;-72
2021/09/18 06:06:10;;;;;;;7.78;4.10;;;14.50;99.30;;;;;;4994790;28;20034;-70
2021/09/18 06:08:35;;;;;;;5.20;3.85;;;14.50;99.30;;;;;;4995221;28;20096;-70
2021/09/18 06:11:01;;;;;;;14.98;4.18;;;14.60;99.40;;;;;;4993599;28;20039;-77
2021/09/18 06:13:26;;;;;;;6.50;3.97;;;14.60;99.10;;;;;;4995060;28;20035;-74
2021/09/18 06:15:52;;;;;;;8.98;4.10;;;14.70;99.20;;;;;;4994840;28;20037;-73
2021/09/18 06:18:17;;;;;;;7.63;4.32;;;14.70;99.00;;;;;;4994931;28;20033;-74
2021/09/18 06:20:43;;;;;;;7.70;3.78;;;14.70;98.90;;;;;;4994803;28;20022;-71
2021/09/18 06:23:08;;;;;;;6.90;4.05;;;14.80;98.90;;;;;;4994482;28;20038;-71
2021/09/18 06:25:34;;;;;;;8.07;4.25;;;14.90;98.80;;;;;;4994347;28;20081;-71
2021/09/18 06:28:00;;;;;;;9.38;4.53;;;14.70;98.80;;;;;;4994257;28;20065;-70
2021/09/18 06:30:25;;;;;;;5.45;3.78;;;14.70;98.80;;;;;;4994333;28;20038;-70
2021/09/18 06:32:51;;;;;;;8.85;4.20;;;14.80;98.80;;;;;;4994829;28;20061;-70
2021/09/18 06:35:17;;;;;;;11.10;4.05;;;14.80;98.90;;;;;;4994277;28;20022;-70
2021/09/18 06:37:44;;;;;;;9.00;3.60;;;15.00;98.80;;;;;;4993561;28;20530;-70
2021/09/18 06:40:14;;;;;;;6.20;4.18;;;15.00;98.60;;;;;;4994165;28;20074;-70
2021/09/18 06:42:40;;;;;;;7.75;4.45;;;15.00;98.60;;;;;;4994178;28;20069;-71
2021/09/18 06:45:07;;;;;;;8.10;4.75;;;15.00;98.70;;;;;;4994359;28;20440;-71
2021/09/18 06:47:33;;;;;;;9.20;4.90;;;15.00;98.70;;;;;;4990729;28;20338;-73
2021/09/18 06:49:59;;;;;;;7.35;4.68;;;15.00;98.70;;;;;;4974631;28;20031;-73
2021/09/18 06:52:25;;;;;;;9.48;4.55;;;15.10;98.70;;;;;;4974721;28;20121;-72
2021/09/18 06:54:50;;;;;;;9.13;4.55;;;15.00;98.50;;;;;;4974442;28;20110;-72
2021/09/18 06:57:16;;;;;;;9.38;5.22;;;15.10;98.60;;;;;;4974468;28;20030;-71
2021/09/18 06:59:41;;;;;;;7.45;4.45;;;15.00;98.50;;;;;;4978322;28;20034;-70
2021/09/18 07:02:08;;;;;;;7.25;4.15;;;15.10;98.60;;;;;;4994202;28;20031;-72
2021/09/18 07:04:35;;;;;;;6.37;3.90;;;15.20;98.50;;;;;;4994097;28;20056;-71
2021/09/18 07:07:02;;;;;;;10.13;4.90;;;15.20;98.50;;;;;;4993798;28;20050;-71
2021/09/18 07:09:27;;;;;;;19.90;11.23;;;15.20;98.40;;;;;;4993836;28;20030;-72
2021/09/18 07:11:53;;;;;;;29.92;18.27;;;15.20;98.50;;;;;;4989571;28;20362;-70
2021/09/18 07:14:19;;;;;;;8.05;5.20;;;15.20;98.40;;;;;;4973977;28;20035;-70
2021/09/18 07:16:44;;;;;;;8.23;4.53;;;15.40;98.40;;;;;;4974242;28;20066;-72
2021/09/18 07:19:10;;;;;;;13.32;5.00;;;15.20;98.20;;;;;;4974337;28;20027;-72
2021/09/18 07:21:36;;;;;;;9.82;4.50;;;15.30;98.60;;;;;;4972821;28;20520;-72
2021/09/18 07:24:01;;;;;;;6.47;4.53;;;15.30;98.40;;;;;;4974434;28;20065;-69
2021/09/18 07:26:27;;;;;;;7.25;4.60;;;15.40;98.40;;;;;;4974425;28;20031;-71
2021/09/18 07:28:53;;;;;;;9.23;4.72;;;15.50;98.30;;;;;;4972632;28;20502;-71
2021/09/18 07:31:19;;;;;;;8.77;4.75;;;15.50;98.40;;;;;;4972997;28;20035;-72
2021/09/18 07:33:44;;;;;;;6.03;4.65;;;15.60;98.30;;;;;;4989092;28;20046;-70
2021/09/18 07:36:10;;;;;;;10.55;4.53;;;15.40;98.30;;;;;;4992266;28;20037;-70
2021/09/18 07:38:35;;;;;;;9.07;5.03;;;15.60;98.50;;;;;;4993726;28;20042;-70
2021/09/18 07:41:01;;;;;;;17.40;8.20;;;15.50;98.40;;;;;;4992272;28;20117;-71
2021/09/18 07:43:27;;;;;;;12.82;5.88;;;15.50;98.50;;;;;;4992862;28;20038;-70
2021/09/18 07:45:52;;;;;;;9.02;4.57;;;15.50;98.50;;;;;;4993200;28;20038;-70
2021/09/18 07:48:18;;;;;;;7.57;4.88;;;15.50;98.40;;;;;;4991993;28;20279;-69
2021/09/18 07:50:45;;;;;;;8.38;5.20;;;15.50;98.20;;;;;;4993033;28;20038;-69
2021/09/18 07:53:11;;;;;;;7.28;4.55;;;15.50;98.30;;;;;;4993052;28;20038;-69
2021/09/18 07:55:37;;;;;;;7.07;4.53;;;15.70;98.30;;;;;;4992593;28;20031;-70
2021/09/18 07:58:03;;;;;;;12.93;4.70;;;15.70;98.10;;;;;;4992623;28;20049;-70
2021/09/18 08:00:28;;;;;;;6.05;4.40;;;15.70;98.20;;;;;;4992544;28;20385;-69
2021/09/18 08:02:55;;;;;;;8.60;4.53;;;15.70;98.20;;;;;;4993188;28;20034;-69
2021/09/18 08:05:24;;;;;;;8.47;4.73;;;15.70;98.20;;;;;;4991941;28;20026;-69
2021/09/18 08:07:50;;;;;;;10.35;4.65;;;15.70;98.30;;;;;;4982219;28;20287;-69
2021/09/18 08:10:16;;;;;;;8.38;4.90;;;15.70;98.40;;;;;;4973340;28;20031;-69
2021/09/18 08:12:47;;;;;;;7.93;5.25;;;15.70;98.40;;;;;;4973407;28;20034;-71
2021/09/18 08:15:15;;;;;;;12.68;4.97;;;15.80;98.40;;;;;;4971806;28;20026;-68
2021/09/18 08:17:42;;;;;;;13.63;5.05;;;15.80;98.60;;;;;;4973604;28;20110;-69
2021/09/18 08:20:08;;;;;;;8.40;4.97;;;15.80;98.70;;;;;;4972852;28;20026;-69
2021/09/18 08:22:34;;;;;;;11.73;6.72;;;15.90;98.80;;;;;;4973025;28;20054;-69
2021/09/18 08:25:00;;;;;;;10.82;5.22;;;15.90;98.60;;;;;;4973051;28;20034;-70
2021/09/18 08:27:25;;;;;;;14.43;5.22;;;15.80;98.70;;;;;;4972916;28;20031;-69
2021/09/18 08:29:51;;;;;;;8.07;4.70;;;15.80;99.00;;;;;;4972956;28;20030;-71
2021/09/18 08:32:16;;;;;;;10.80;5.80;;;15.70;99.30;;;;;;4972712;28;20043;-70
2021/09/18 08:34:42;;;;;;;9.18;5.43;;;15.90;99.60;;;;;;4972869;28;20030;-71
2021/09/18 08:37:07;;;;;;;13.23;6.03;;;15.90;99.70;;;;;;4972599;28;20117;-68
2021/09/18 08:39:35;;;;;;;11.65;5.95;;;15.80;99.90;;;;;;4972658;28;20470;-68
2021/09/18 08:42:03;;;;;;;13.68;6.80;;;15.90;99.90;;;;;;4972765;28;20058;-68
2021/09/18 08:44:28;;;;;;;10.50;6.20;;;16.10;99.90;;;;;;4972776;28;20065;-69
2021/09/18 08:46:55;;;;;;;10.93;6.30;;;16.30;99.90;;;;;;4972651;28;20054;-68
2021/09/18 08:49:21;;;;;;;11.75;6.53;;;16.20;99.90;;;;;;4972570;28;20441;-68
2021/09/18 08:51:47;;;;;;;9.55;5.97;;;16.30;99.90;;;;;;4972714;28;20391;-69
2021/09/18 08:54:13;;;;;;;13.32;6.65;;;16.40;99.90;;;;;;4972418;28;20030;-67
2021/09/18 08:56:39;;;;;;;12.77;6.50;;;16.40;99.90;;;;;;4972852;28;20041;-68
2021/09/18 08:59:05;;;;;;;13.38;6.80;;;16.50;99.90;;;;;;4971866;28;20365;-69
2021/09/18 09:01:33;;;;;;;13.15;6.93;;;16.70;99.90;;;;;;4972210;28;20042;-71
2021/09/18 09:04:01;;;;;;;13.02;7.10;;;16.80;99.90;;;;;;4972515;28;20038;-70
2021/09/18 09:06:41;;;;;;;22.08;7.85;;;16.70;99.90;;;;;;4972465;28;20051;-69
2021/09/18 09:09:06;;;;;;;16.40;7.80;;;16.80;99.90;;;;;;4972150;28;20070;-69
2021/09/18 09:11:32;;;;;;;15.02;8.00;;;16.80;99.90;;;;;;4972364;28;20073;-71
2021/09/18 09:14:02;;;;;;;15.27;8.00;;;16.90;99.90;;;;;;4972063;28;20441;-71
2021/09/18 09:16:30;;;;;;;14.52;7.35;;;16.90;99.90;;;;;;4972123;28;20027;-70
2021/09/18 09:18:56;;;;;;;12.80;7.20;;;16.90;99.90;;;;;;4971441;28;20463;-72
2021/09/18 09:21:29;;;;;;;15.88;6.88;;;16.90;99.90;;;;;;4972413;28;20027;-71
2021/09/18 09:24:08;;;;;;;14.50;8.07;;;16.70;99.90;;;;;;4972733;28;20031;-71
2021/09/18 09:26:36;;;;;;;15.23;7.88;;;16.90;99.90;;;;;;4971364;28;20043;-72
2021/09/18 09:29:02;;;;;;;13.95;8.00;;;17.10;99.90;;;;;;4971795;28;20061;-71
2021/09/18 09:31:31;;;;;;;13.00;8.73;;;17.20;99.90;;;;;;4972172;28;20059;-71
2021/09/18 09:34:08;;;;;;;13.13;8.32;;;17.30;99.90;;;;;;4972358;28;20034;-71
2021/09/18 09:36:40;;;;;;;12.32;7.60;;;17.40;99.60;;;;;;4971816;28;20374;-72
2021/09/18 09:39:07;;;;;;;12.60;8.07;;;17.50;99.60;;;;;;4971988;28;20022;-71
2021/09/18 09:41:34;;;;;;;12.73;8.05;;;17.60;99.50;;;;;;4972026;28;20031;-71
2021/09/18 09:44:02;;;;;;;14.73;9.18;;;17.50;99.50;;;;;;4971729;28;20034;-69
2021/09/18 09:46:28;;;;;;;15.82;8.93;;;17.60;99.70;;;;;;4971772;28;20031;-70
2021/09/18 09:49:07;;;;;;;12.38;8.07;;;17.60;99.40;;;;;;4971955;28;20046;-70
2021/09/18 09:51:33;;;;;;;12.13;7.93;;;17.70;99.30;;;;;;4971853;28;20034;-69
2021/09/18 09:54:22;;;;;;;11.30;7.82;;;17.80;99.30;;;;;;4971633;28;20134;-71
2021/09/18 09:57:03;;;;;;;15.13;8.35;;;17.80;99.00;;;;;;4971959;28;20018;-69
2021/09/18 09:59:29;;;;;;;11.07;7.43;;;17.80;99.00;;;;;;4972005;28;20035;-70
2021/09/18 10:01:55;;;;;;;11.63;6.90;;;18.00;99.20;;;;;;4971542;28;20092;-71
2021/09/18 10:04:20;;;;;;;11.40;7.60;;;18.20;99.20;;;;;;4971877;28;20050;-71
2021/09/18 10:06:46;;;;;;;11.23;7.30;;;18.20;99.00;;;;;;4971408;28;20042;-70
2021/09/18 10:09:16;;;;;;;11.75;7.00;;;18.40;98.60;;;;;;4971464;28;20110;-69
2021/09/18 10:11:41;;;;;;;10.38;6.88;;;18.40;98.40;;;;;;4973288;28;20030;-69
2021/09/18 10:14:09;;;;;;;10.57;6.47;;;18.50;98.40;;;;;;4975449;28;20577;-69
2021/09/18 10:16:36;;;;;;;10.10;7.68;;;18.60;98.40;;;;;;4975134;28;20043;-70
2021/09/18 10:19:06;;;;;;;12.25;8.15;;;18.70;98.30;;;;;;4973787;28;20031;-73
2021/09/18 10:24:16;;;;;;;11.95;6.57;;;19.10;97.80;;;;;;4974377;28;20496;-71
2021/09/18 10:26:42;;;;;;;12.38;7.38;;;19.40;97.70;;;;;;4993789;28;20049;-71
2021/09/18 10:29:08;;;;;;;11.25;8.55;;;19.50;97.60;;;;;;4994620;28;20110;-72
2021/09/18 10:31:33;;;;;;;13.25;7.57;;;19.60;96.80;;;;;;4994452;28;20394;-72
2021/09/18 10:34:19;;;;;;;9.20;6.38;;;19.80;97.00;;;;;;4994326;28;20034;-71
2021/09/18 10:36:45;;;;;;;9.02;5.60;;;20.10;96.70;;;;;;4993013;28;20148;-72
2021/09/18 10:39:17;;;;;;;8.10;6.30;;;20.30;96.30;;;;;;4993780;28;20102;-72
2021/09/18 10:41:45;;;;;;;14.60;6.70;;;20.30;95.80;;;;;;4994489;28;20106;-71
2021/09/18 10:44:12;;;;;;;9.47;5.53;;;20.30;95.50;;;;;;4994274;28;20037;-72
2021/09/18 10:46:51;;;;;;;9.20;5.18;;;20.30;95.70;;;;;;4994128;28;20050;-72
2021/09/18 10:49:50;;;;;;;8.50;6.00;;;20.30;95.50;;;;;;4994310;28;20092;-71
2021/09/18 10:52:28;;;;;;;8.05;5.40;;;20.00;95.40;;;;;;4992717;28;20125;-72
2021/09/18 10:55:03;;;;;;;9.75;4.90;;;19.90;95.70;;;;;;4994076;28;20039;-72
2021/09/18 10:57:49;;;;;;;9.65;6.72;;;19.90;95.70;;;;;;4993760;28;20491;-72
2021/09/18 11:00:21;;;;;;;5.85;4.60;;;19.80;95.40;;;;;;4993853;28;20041;-72
2021/09/18 11:02:57;;;;;;;8.90;5.47;;;19.70;95.60;;;;;;4994234;28;20150;-71
2021/09/18 11:05:26;;;;;;;11.80;6.38;;;19.60;95.60;;;;;;4993900;28;20027;-71
2021/09/18 11:08:00;;;;;;;14.88;6.45;;;19.80;95.60;;;;;;4992184;28;20047;-72
2021/09/18 11:10:28;;;;;;;6.97;4.68;;;19.70;95.80;;;;;;4993684;28;20030;-70
2021/09/18 11:13:09;;;;;;;8.55;4.88;;;19.90;95.60;;;;;;4993888;28;20106;-71
2021/09/18 11:15:38;;;;;;;7.93;5.03;;;19.90;95.60;;;;;;4993688;28;20041;-73
2021/09/18 11:18:15;;;;;;;9.32;5.10;;;19.90;95.20;;;;;;4993708;28;20019;-72
2021/09/18 11:20:41;;;;;;;6.80;4.70;;;19.90;95.50;;;;;;4994116;28;20022;-73
2021/09/18 11:23:08;;;;;;;7.07;5.00;;;19.90;95.30;;;;;;4993248;28;20050;-73
2021/09/18 11:25:37;;;;;;;7.07;4.47;;;20.00;95.30;;;;;;4993531;28;20381;-72
2021/09/18 11:28:04;;;;;;;5.93;4.40;;;20.10;95.00;;;;;;4993322;28;20042;-73
2021/09/18 11:30:44;;;;;;;6.15;3.80;;;20.10;94.80;;;;;;4992628;28;20038;-73
2021/09/18 11:33:11;;;;;;;5.20;3.58;;;20.00;95.00;;;;;;4978830;28;20041;-74
2021/09/18 11:35:38;;;;;;;5.57;3.67;;;20.00;94.80;;;;;;4974599;28;20358;-73
2021/09/18 11:38:06;;;;;;;4.05;3.08;;;20.00;94.50;;;;;;4973699;28;20046;-73
2021/09/18 11:40:34;;;;;;;6.20;3.08;;;19.90;94.50;;;;;;4973930;28;20042;-72
2021/09/18 11:43:00;;;;;;;6.15;3.80;;;19.80;94.50;;;;;;4973740;28;20058;-73
2021/09/18 11:45:27;;;;;;;5.28;4.03;;;19.80;94.50;;;;;;4973673;28;20039;-72
2021/09/18 11:47:56;;;;;;;6.72;4.57;;;19.70;94.60;;;;;;4973853;28;20110;-73
2021/09/18 11:50:31;;;;;;;4.78;3.58;;;19.50;95.00;;;;;;4991663;28;20049;-73
2021/09/18 11:53:02;;;;;;;7.18;4.32;;;19.50;95.10;;;;;;4992740;28;20130;-73
2021/09/18 11:55:33;;;;;;;10.10;6.57;;;19.50;95.20;;;;;;4993019;28;20101;-73
2021/09/18 11:58:16;;;;;;;6.78;4.97;;;19.60;95.10;;;;;;4993127;28;20449;-73
2021/09/18 12:00:46;;;;;;;7.63;4.72;;;19.50;95.00;;;;;;4991965;28;20076;-73
2021/09/18 12:03:12;;;;;;;6.97;4.22;;;19.40;95.30;;;;;;4992793;28;20130;-73
2021/09/18 12:05:38;;;;;;;5.85;4.07;;;19.30;95.20;;;;;;4993258;28;20034;-73
2021/09/18 12:08:05;;;;;;;7.47;4.22;;;19.30;95.10;;;;;;4992359;28;20518;-73
2021/09/18 12:10:31;;;;;;;5.03;3.80;;;19.40;95.20;;;;;;4992784;28;20031;-73
2021/09/18 12:12:59;;;;;;;4.88;3.42;;;19.50;95.20;;;;;;4992787;28;20359;-73
2021/09/18 12:15:34;;;;;;;5.55;3.45;;;19.50;95.10;;;;;;4992671;28;20461;-73
2021/09/18 12:18:01;;;;;;;5.25;3.33;;;19.60;95.40;;;;;;4992508;28;20088;-71
2021/09/18 12:20:27;;;;;;;3.63;3.08;;;19.60;95.30;;;;;;4992882;28;20033;-71
2021/09/18 12:22:52;;;;;;;6.90;4.13;;;19.60;95.10;;;;;;4992487;28;20073;-71
2021/09/18 12:25:29;;;;;;;6.00;3.78;;;19.60;94.90;;;;;;4992616;28;20492;-71
2021/09/18 12:28:00;;;;;;;5.07;3.47;;;19.60;95.00;;;;;;4984860;28;20046;-73
2021/09/18 12:30:37;;;;;;;6.03;3.42;;;19.60;95.10;;;;;;4976699;28;20125;-71
2021/09/18 12:33:15;;;;;;;4.40;3.47;;;19.60;94.80;;;;;;4992331;28;20030;-70
2021/09/18 12:35:43;;;;;;;4.82;3.50;;;19.60;94.90;;;;;;4991874;28;20057;-72
2021/09/18 12:38:10;;;;;;;5.30;3.60;;;19.60;94.90;;;;;;4992327;28;20601;-75
2021/09/18 12:40:39;;;;;;;6.82;3.75;;;19.70;94.90;;;;;;4992092;28;20057;-72
2021/09/18 12:43:10;;;;;;;6.60;3.13;;;19.70;94.90;;;;;;4992334;28;20053;-73
2021/09/18 12:45:35;;;;;;;4.30;3.13;;;19.80;95.00;;;;;;4992439;28;20034;-74
2021/09/18 12:48:15;;;;;;;4.85;3.00;;;19.80;94.80;;;;;;4992432;28;20455;-75